createdAt,value
2023-03-18T00:00:20.615Z,71.69
2023-03-18T00:01:20.604Z,65.82
2023-03-18T00:02:20.612Z,67.29
2023-03-18T00:03:20.686Z,65.28
2023-03-18T00:04:20.555Z,65.62
2023-03-18T00:05:20.566Z,65.43
2023-03-18T00:06:20.537Z,68.66
2023-03-18T00:07:20.673Z,59.01
2023-03-18T00:08:20.508Z,66.79
2023-03-18T00:09:20.516Z,64.42
2023-03-18T00:10:20.543Z,58.78
2023-03-18T00:11:20.488Z,68.09
2023-03-18T00:12:20.502Z,63.50
2023-03-18T00:13:20.485Z,66.70
2023-03-18T00:14:20.477Z,65.46
2023-03-18T00:15:20.470Z,69.31
2023-03-18T00:16:20.888Z,66.14
2023-03-18T00:17:20.441Z,66.70
2023-03-18T00:18:20.433Z,64.40
2023-03-18T00:19:20.410Z,68.77
2023-03-18T00:20:20.397Z,65.88
2023-03-18T00:21:20.425Z,67.51
2023-03-18T00:22:20.398Z,65.76
2023-03-18T00:23:20.362Z,62.40
2023-03-18T00:24:20.348Z,61.27
2023-03-18T00:25:20.361Z,66.72
2023-03-18T00:26:20.345Z,59.71
2023-03-18T00:27:20.297Z,70.08
2023-03-18T00:28:20.305Z,70.67
2023-03-18T00:29:20.328Z,64.72
2023-03-18T00:30:20.272Z,71.69
2023-03-18T00:31:20.280Z,69.36
2023-03-18T00:32:20.285Z,70.55
2023-03-18T00:33:20.273Z,71.13
2023-03-18T00:34:20.245Z,67.94
2023-03-18T00:35:20.229Z,70.06
2023-03-18T00:36:20.220Z,72.79
2023-03-18T00:37:20.231Z,66.63
2023-03-18T00:38:20.212Z,62.11
2023-03-18T00:39:20.201Z,68.45
2023-03-18T00:40:20.195Z,67.11
2023-03-18T00:41:20.164Z,69.99
2023-03-18T00:42:20.164Z,64.24
2023-03-18T00:43:20.143Z,65.86
2023-03-18T00:44:20.128Z,62.62
2023-03-18T00:45:20.146Z,65.14
2023-03-18T00:46:20.120Z,64.70
2023-03-18T00:47:21.098Z,67.03
2023-03-18T00:48:20.103Z,54.30
2023-03-18T00:49:20.071Z,66.78
2023-03-18T00:50:20.092Z,69.55
2023-03-18T00:51:20.028Z,71.91
2023-03-18T00:52:20.127Z,60.65
2023-03-18T00:53:20.014Z,66.73
2023-03-18T00:54:20.015Z,63.10
2023-03-18T00:55:20.012Z,65.90
2023-03-18T00:56:20.017Z,69.31
2023-03-18T00:57:20.014Z,62.94
2023-03-18T00:58:19.988Z,53.96
2023-03-18T00:59:19.986Z,68.61
2023-03-18T01:00:19.983Z,61.51
2023-03-18T01:01:20.038Z,63.27
2023-03-18T01:02:19.978Z,65.73
2023-03-18T01:03:19.917Z,56.85
2023-03-18T01:04:19.915Z,65.88
2023-03-18T01:05:19.913Z,66.48
2023-03-18T01:06:19.880Z,63.20
2023-03-18T01:07:19.874Z,63.57
2023-03-18T01:08:19.856Z,62.42
2023-03-18T01:09:19.846Z,63.79
2023-03-18T01:10:19.886Z,65.19
2023-03-18T01:11:19.845Z,63.97
2023-03-18T01:12:19.839Z,67.36
2023-03-18T01:13:19.800Z,64.81
2023-03-18T01:14:19.849Z,61.66
2023-03-18T01:15:19.791Z,61.12
2023-03-18T01:16:19.808Z,60.71
2023-03-18T01:17:19.759Z,64.26
2023-03-18T01:18:19.779Z,60.73
2023-03-18T01:19:19.743Z,54.37
2023-03-18T01:20:19.755Z,64.95
2023-03-18T01:21:20.692Z,60.28
2023-03-18T01:22:19.778Z,61.56
2023-03-18T01:23:19.699Z,65.51
2023-03-18T01:24:19.662Z,62.38
2023-03-18T01:25:20.247Z,61.81
2023-03-18T01:26:19.719Z,69.56
2023-03-18T01:27:19.684Z,67.00
2023-03-18T01:28:19.626Z,58.31
2023-03-18T01:29:19.634Z,46.49
2023-03-18T01:30:19.659Z,61.91
2023-03-18T01:31:19.698Z,69.76
2023-03-18T01:32:19.582Z,67.24
2023-03-18T01:33:19.596Z,60.48
2023-03-18T01:34:19.545Z,64.88
2023-03-18T01:35:19.552Z,65.31
2023-03-18T01:36:19.598Z,61.54
2023-03-18T01:37:19.563Z,58.83
2023-03-18T01:38:19.514Z,68.68
2023-03-18T01:39:19.564Z,62.48
2023-03-18T01:40:19.530Z,69.70
2023-03-18T01:41:19.481Z,68.45
2023-03-18T01:42:19.489Z,65.23
2023-03-18T01:43:19.544Z,60.34
2023-03-18T01:44:19.466Z,60.72
2023-03-18T01:45:19.467Z,54.37
2023-03-18T01:46:19.456Z,67.11
2023-03-18T01:47:19.424Z,63.72
2023-03-18T01:48:19.400Z,62.77
2023-03-18T01:49:19.428Z,64.07
2023-03-18T01:50:19.391Z,68.23
2023-03-18T01:51:19.419Z,69.84
2023-03-18T01:52:19.370Z,68.42
2023-03-18T01:53:19.377Z,52.47
2023-03-18T01:54:19.471Z,60.69
2023-03-18T01:55:19.332Z,61.06
2023-03-18T01:56:19.319Z,65.80
2023-03-18T01:57:19.319Z,61.28
2023-03-18T01:58:19.307Z,64.11
2023-03-18T01:59:19.306Z,48.63
2023-03-18T02:00:19.355Z,60.64
2023-03-18T02:01:19.394Z,68.49
2023-03-18T02:02:19.336Z,63.78
2023-03-18T02:03:19.272Z,70.25
2023-03-18T02:04:19.273Z,63.27
2023-03-18T02:05:19.396Z,70.07
2023-03-18T02:06:19.203Z,67.83
2023-03-18T02:07:19.237Z,54.71
2023-03-18T02:08:19.238Z,58.56
2023-03-18T02:09:19.184Z,69.32
2023-03-18T02:10:19.189Z,63.42
2023-03-18T02:11:19.205Z,69.45
2023-03-18T02:12:19.150Z,64.42
2023-03-18T02:13:19.186Z,67.72
2023-03-18T02:14:19.150Z,66.93
2023-03-18T02:15:19.132Z,69.70
2023-03-18T02:16:19.138Z,68.77
2023-03-18T02:17:19.095Z,64.21
2023-03-18T02:18:19.161Z,65.76
2023-03-18T02:19:19.068Z,66.65
2023-03-18T02:20:19.074Z,67.38
2023-03-18T02:21:19.154Z,66.78
2023-03-18T02:22:19.078Z,60.65
2023-03-18T02:23:19.056Z,67.11
2023-03-18T02:24:19.028Z,58.40
2023-03-18T02:25:19.022Z,65.24
2023-03-18T02:26:19.012Z,69.41
2023-03-18T02:27:19.004Z,68.47
2023-03-18T02:28:19.007Z,67.62
2023-03-18T02:29:19.047Z,72.44
2023-03-18T02:30:18.958Z,69.81
2023-03-18T02:31:19.074Z,57.68
2023-03-18T02:32:18.940Z,61.07
2023-03-18T02:33:18.948Z,67.76
2023-03-18T02:34:18.971Z,70.65
2023-03-18T02:35:18.916Z,74.23
2023-03-18T02:36:18.904Z,64.09
2023-03-18T02:37:18.906Z,67.58
2023-03-18T02:38:18.886Z,69.86
2023-03-18T02:39:18.888Z,66.16
2023-03-18T02:40:18.878Z,65.21
2023-03-18T02:41:18.864Z,67.61
2023-03-18T02:42:18.849Z,69.36
2023-03-18T02:43:18.836Z,69.01
2023-03-18T02:44:18.810Z,71.11
2023-03-18T02:45:18.859Z,61.04
2023-03-18T02:46:18.889Z,66.08
2023-03-18T02:47:18.798Z,62.37
2023-03-18T02:48:18.773Z,59.92
2023-03-18T02:49:18.805Z,69.81
2023-03-18T02:50:18.771Z,71.04
2023-03-18T02:51:18.764Z,65.45
2023-03-18T02:52:18.761Z,62.85
2023-03-18T02:53:18.750Z,67.02
2023-03-18T02:54:18.711Z,55.66
2023-03-18T02:55:19.177Z,62.15
2023-03-18T02:56:18.687Z,67.85
2023-03-18T02:57:18.725Z,62.34
2023-03-18T02:58:18.675Z,71.89
2023-03-18T02:59:18.660Z,64.15
2023-03-18T03:00:18.647Z,51.54
2023-03-18T03:01:18.726Z,66.32
2023-03-18T03:02:18.669Z,66.89
2023-03-18T03:03:18.718Z,70.34
2023-03-18T03:04:18.653Z,60.09
2023-03-18T03:05:18.654Z,64.18
2023-03-18T03:06:18.583Z,63.67
2023-03-18T03:07:18.605Z,70.26
2023-03-18T03:08:18.540Z,63.52
2023-03-18T03:09:18.620Z,65.05
2023-03-18T03:10:19.288Z,64.96
2023-03-18T03:11:18.537Z,65.56
2023-03-18T03:12:18.497Z,66.91
2023-03-18T03:13:18.536Z,55.35
2023-03-18T03:14:18.552Z,53.70
2023-03-18T03:15:18.506Z,60.75
2023-03-18T03:16:18.614Z,72.64
2023-03-18T03:17:18.485Z,63.05
2023-03-18T03:18:18.458Z,62.31
2023-03-18T03:19:18.493Z,69.42
2023-03-18T03:20:18.433Z,66.07
2023-03-18T03:21:18.460Z,70.91
2023-03-18T03:22:18.417Z,67.35
2023-03-18T03:23:18.457Z,65.39
2023-03-18T03:24:18.394Z,62.58
2023-03-18T03:25:19.236Z,54.49
2023-03-18T03:26:18.436Z,56.52
2023-03-18T03:27:18.422Z,68.77
2023-03-18T03:28:18.411Z,60.92
2023-03-18T03:29:18.373Z,63.76
2023-03-18T03:30:18.346Z,68.88
2023-03-18T03:31:18.381Z,70.55
2023-03-18T03:32:18.323Z,60.94
2023-03-18T03:33:18.446Z,59.36
2023-03-18T03:34:18.302Z,56.07
2023-03-18T03:35:18.298Z,69.40
2023-03-18T03:36:18.310Z,70.80
2023-03-18T03:37:18.238Z,59.70
2023-03-18T03:38:18.286Z,57.96
2023-03-18T03:39:18.266Z,67.92
2023-03-18T03:40:18.375Z,59.86
2023-03-18T03:41:18.328Z,67.60
2023-03-18T03:42:18.229Z,67.89
2023-03-18T03:43:18.184Z,65.74
2023-03-18T03:44:18.213Z,58.85
2023-03-18T03:45:18.187Z,67.36
2023-03-18T03:46:18.280Z,73.00
2023-03-18T03:47:18.176Z,65.88
2023-03-18T03:48:18.145Z,66.69
2023-03-18T03:49:18.148Z,63.19
2023-03-18T03:50:18.191Z,71.11
2023-03-18T03:51:18.150Z,68.16
2023-03-18T03:52:18.391Z,70.63
2023-03-18T03:53:18.069Z,66.32
2023-03-18T03:54:18.061Z,64.83
2023-03-18T03:55:18.092Z,69.01
2023-03-18T03:56:18.758Z,69.83
2023-03-18T03:57:18.143Z,66.53
2023-03-18T03:58:18.042Z,69.41
2023-03-18T03:59:18.038Z,67.81
2023-03-18T04:00:18.031Z,71.94
2023-03-18T04:01:18.015Z,67.84
2023-03-18T04:02:18.026Z,62.85
2023-03-18T04:03:17.988Z,69.41
2023-03-18T04:04:18.031Z,63.83
2023-03-18T04:05:17.977Z,69.89
2023-03-18T04:06:17.975Z,65.74
2023-03-18T04:07:17.940Z,71.16
2023-03-18T04:08:17.949Z,58.53
2023-03-18T04:09:17.942Z,56.44
2023-03-18T04:10:17.904Z,63.24
2023-03-18T04:11:17.926Z,57.62
2023-03-18T04:12:17.894Z,74.20
2023-03-18T04:13:17.840Z,73.65
2023-03-18T04:14:17.887Z,66.27
2023-03-18T04:15:17.839Z,67.45
2023-03-18T04:16:17.932Z,67.58
2023-03-18T04:17:17.829Z,70.25
2023-03-18T04:18:17.792Z,66.24
2023-03-18T04:19:17.830Z,67.36
2023-03-18T04:20:17.815Z,71.78
2023-03-18T04:21:17.773Z,62.00
2023-03-18T04:22:17.738Z,65.45
2023-03-18T04:23:17.715Z,64.68
2023-03-18T04:24:17.723Z,71.61
2023-03-18T04:25:17.712Z,70.11
2023-03-18T04:26:17.728Z,68.03
2023-03-18T04:27:17.749Z,71.21
2023-03-18T04:28:17.713Z,69.62
2023-03-18T04:29:17.700Z,66.10
2023-03-18T04:30:17.669Z,66.75
2023-03-18T04:31:17.705Z,72.91
2023-03-18T04:32:17.652Z,66.69
2023-03-18T04:33:17.628Z,68.66
2023-03-18T04:34:17.637Z,66.19
2023-03-18T04:35:17.589Z,70.27
2023-03-18T04:36:17.583Z,72.43
2023-03-18T04:37:18.197Z,67.24
2023-03-18T04:38:17.581Z,68.40
2023-03-18T04:39:17.640Z,70.23
2023-03-18T04:40:17.528Z,73.01
2023-03-18T04:41:17.535Z,71.43
2023-03-18T04:42:17.548Z,68.80
2023-03-18T04:43:17.552Z,65.27
2023-03-18T04:44:17.500Z,66.78
2023-03-18T04:45:17.500Z,65.03
2023-03-18T04:46:17.524Z,71.92
2023-03-18T04:47:17.492Z,68.39
2023-03-18T04:48:17.502Z,71.55
2023-03-18T04:49:17.492Z,69.60
2023-03-18T04:50:17.436Z,67.42
2023-03-18T04:51:17.420Z,74.41
2023-03-18T04:52:17.416Z,70.98
2023-03-18T04:53:17.425Z,66.86
2023-03-18T04:54:17.429Z,68.64
2023-03-18T04:55:17.416Z,75.16
2023-03-18T04:56:17.385Z,72.07
2023-03-18T04:57:18.269Z,70.02
2023-03-18T04:58:17.363Z,69.51
2023-03-18T04:59:17.360Z,69.30
2023-03-18T05:00:17.367Z,67.85
2023-03-18T05:01:17.407Z,70.80
2023-03-18T05:02:18.167Z,70.36
2023-03-18T05:03:17.303Z,71.17
2023-03-18T05:04:17.386Z,73.12
2023-03-18T05:05:17.284Z,67.87
2023-03-18T05:06:17.308Z,72.69
2023-03-18T05:07:17.256Z,73.26
2023-03-18T05:08:17.244Z,72.51
2023-03-18T05:09:17.229Z,69.35
2023-03-18T05:12:37.404Z,71.87
2023-03-18T05:13:37.652Z,69.61
2023-03-18T05:14:37.399Z,71.52
2023-03-18T05:15:37.298Z,73.90
2023-03-18T05:16:37.395Z,73.98
2023-03-18T05:17:37.316Z,74.57
2023-03-18T05:18:37.298Z,68.49
2023-03-18T05:19:37.278Z,70.76
2023-03-18T05:20:37.301Z,67.32
2023-03-18T05:21:37.291Z,75.99
2023-03-18T05:22:37.295Z,74.86
2023-03-18T05:23:37.229Z,72.79
2023-03-18T05:24:37.322Z,71.51
2023-03-18T05:25:37.183Z,73.94
2023-03-18T05:26:37.179Z,72.20
2023-03-18T05:27:37.172Z,72.12
2023-03-18T05:28:37.166Z,74.42
2023-03-18T05:29:37.175Z,71.95
2023-03-18T05:30:37.947Z,72.99
2023-03-18T05:31:37.219Z,74.28
2023-03-18T05:32:37.209Z,75.23
2023-03-18T05:33:37.142Z,72.09
2023-03-18T05:34:37.179Z,76.37
2023-03-18T05:35:37.146Z,73.87
2023-03-18T05:36:37.121Z,77.04
2023-03-18T05:37:37.088Z,76.46
2023-03-18T05:38:37.048Z,73.65
2023-03-18T05:39:37.067Z,72.70
2023-03-18T05:40:37.971Z,74.07
2023-03-18T05:41:37.021Z,72.10
2023-03-18T05:42:49.457Z,75.17
2023-03-18T05:43:39.079Z,69.71
2023-03-18T05:44:37.030Z,73.30
2023-03-18T05:45:39.949Z,74.61
2023-03-18T05:46:38.157Z,74.48
2023-03-18T05:47:37.004Z,74.93
2023-03-18T05:48:36.978Z,72.10
2023-03-18T05:49:36.976Z,72.08
2023-03-18T05:50:36.966Z,72.61
2023-03-18T05:51:36.928Z,65.13
2023-03-18T05:52:36.896Z,74.30
2023-03-18T05:53:36.890Z,74.86
2023-03-18T05:54:36.941Z,73.22
2023-03-18T05:55:36.878Z,73.58
2023-03-18T05:56:36.931Z,73.05
2023-03-18T05:57:36.918Z,68.95
2023-03-18T05:58:36.911Z,69.47
2023-03-18T05:59:36.812Z,71.44
2023-03-18T06:00:36.881Z,72.90
2023-03-18T06:01:36.827Z,72.60
2023-03-18T06:02:36.847Z,71.53
2023-03-18T06:03:36.884Z,73.73
2023-03-18T06:04:36.822Z,73.16
2023-03-18T06:05:37.498Z,71.29
2023-03-18T06:06:36.771Z,71.46
2023-03-18T06:07:36.779Z,69.74
2023-03-18T06:08:36.736Z,69.20
2023-03-18T06:09:36.722Z,73.86
2023-03-18T06:10:36.718Z,72.08
2023-03-18T06:11:36.710Z,69.66
2023-03-18T06:12:36.795Z,72.84
2023-03-18T06:13:36.674Z,72.67
2023-03-18T06:14:36.710Z,70.39
2023-03-18T06:15:36.695Z,72.62
2023-03-18T06:16:37.572Z,73.05
2023-03-18T06:17:36.683Z,71.39
2023-03-18T06:18:36.607Z,73.39
2023-03-18T06:19:36.707Z,68.69
2023-03-18T06:20:36.601Z,72.82
2023-03-18T06:21:37.533Z,70.12
2023-03-18T06:22:36.604Z,71.57
2023-03-18T06:23:36.566Z,73.40
2023-03-18T06:24:36.546Z,69.48
2023-03-18T06:25:36.532Z,70.51
2023-03-18T06:26:36.538Z,73.01
2023-03-18T06:27:36.516Z,73.54
2023-03-18T06:28:36.547Z,72.85
2023-03-18T06:29:36.509Z,74.54
2023-03-18T06:30:36.540Z,73.96
2023-03-18T06:31:36.485Z,73.31
2023-03-18T06:32:36.449Z,71.75
2023-03-18T06:33:36.468Z,72.76
2023-03-18T06:34:36.491Z,74.30
2023-03-18T06:35:36.473Z,69.17
2023-03-18T06:36:36.413Z,74.22
2023-03-18T06:37:37.437Z,72.30
2023-03-18T06:38:36.446Z,69.92
2023-03-18T06:39:36.459Z,71.57
2023-03-18T06:40:36.410Z,73.67
2023-03-18T06:41:36.325Z,72.88
2023-03-18T06:42:36.370Z,73.45
2023-03-18T06:43:36.356Z,73.80
2023-03-18T06:44:36.492Z,70.51
2023-03-18T06:45:36.357Z,71.94
2023-03-18T06:46:36.423Z,71.04
2023-03-18T06:47:36.297Z,69.61
2023-03-18T06:48:36.293Z,71.48
2023-03-18T06:49:36.300Z,72.75
2023-03-18T06:50:36.254Z,73.27
2023-03-18T06:51:36.221Z,70.96
2023-03-18T06:52:36.211Z,72.24
2023-03-18T06:53:36.863Z,74.78
2023-03-18T06:54:36.494Z,72.19
2023-03-18T06:55:36.203Z,67.83
2023-03-18T06:56:36.203Z,71.46
2023-03-18T06:57:36.156Z,72.72
2023-03-18T06:58:36.185Z,72.50
2023-03-18T06:59:36.273Z,71.11
2023-03-18T07:00:36.209Z,72.01
2023-03-18T07:01:36.181Z,72.11
2023-03-18T07:02:38.998Z,71.49
2023-03-18T07:03:36.093Z,71.04
2023-03-18T07:04:36.146Z,71.71
2023-03-18T07:05:36.068Z,69.05
2023-03-18T07:06:37.103Z,72.65
2023-03-18T07:07:36.973Z,71.35
2023-03-18T07:08:36.244Z,69.40
2023-03-18T07:09:36.114Z,68.64
2023-03-18T07:10:36.123Z,74.01
2023-03-18T07:11:36.104Z,73.39
2023-03-18T07:12:35.983Z,74.16
2023-03-18T07:13:35.994Z,72.29
2023-03-18T07:14:36.014Z,67.87
2023-03-18T07:15:36.777Z,73.08
2023-03-18T07:16:35.944Z,71.22
2023-03-18T07:17:36.462Z,70.39
2023-03-18T07:18:35.954Z,74.47
2023-03-18T07:19:35.913Z,72.09
2023-03-18T07:20:36.949Z,71.65
2023-03-18T07:21:35.907Z,69.89
2023-03-18T07:22:35.914Z,71.13
2023-03-18T07:23:35.940Z,69.58
2023-03-18T07:24:37.010Z,70.28
2023-03-18T07:25:35.907Z,71.73
2023-03-18T07:26:35.820Z,71.85
2023-03-18T07:27:35.844Z,71.86
2023-03-18T07:28:35.846Z,72.12
2023-03-18T07:29:35.810Z,72.15
2023-03-18T07:30:35.818Z,70.01
2023-03-18T07:31:35.872Z,70.32
2023-03-18T07:32:35.830Z,71.28
2023-03-18T07:33:35.779Z,73.90
2023-03-18T07:34:35.741Z,72.45
2023-03-18T07:35:36.209Z,70.75
2023-03-18T07:36:35.753Z,71.47
2023-03-18T07:37:35.757Z,71.05
2023-03-18T07:38:35.770Z,71.05
2023-03-18T07:39:35.705Z,70.64
2023-03-18T07:40:35.750Z,70.04
2023-03-18T07:41:37.783Z,71.96
2023-03-18T07:42:36.903Z,71.80
2023-03-18T07:43:35.801Z,70.43
2023-03-18T07:44:35.674Z,73.85
2023-03-18T07:45:35.649Z,71.17
2023-03-18T07:46:35.701Z,73.43
2023-03-18T07:47:35.681Z,72.80
2023-03-18T07:48:36.632Z,72.29
2023-03-18T07:49:35.605Z,72.99
2023-03-18T07:50:35.560Z,70.25
2023-03-18T07:51:35.571Z,71.69
2023-03-18T07:52:35.537Z,72.37
2023-03-18T07:53:35.569Z,73.28
2023-03-18T07:54:35.525Z,71.68
2023-03-18T07:55:35.481Z,73.03
2023-03-18T07:56:35.541Z,71.31
2023-03-18T07:57:35.494Z,70.43
2023-03-18T07:58:36.469Z,71.47
2023-03-18T07:59:35.455Z,71.88
2023-03-18T08:00:35.750Z,69.62
2023-03-18T08:01:35.449Z,71.75
2023-03-18T08:02:35.445Z,71.30
2023-03-18T08:03:35.481Z,71.48
2023-03-18T08:04:35.450Z,72.34
2023-03-18T08:05:35.483Z,73.97
2023-03-18T08:06:35.394Z,70.87
2023-03-18T08:07:35.398Z,71.52
2023-03-18T08:08:35.380Z,69.11
2023-03-18T08:09:35.354Z,72.04
2023-03-18T08:10:35.409Z,74.42
2023-03-18T08:11:35.358Z,72.98
2023-03-18T08:12:51.033Z,74.56
2023-03-18T08:13:37.356Z,72.75
2023-03-18T08:14:35.280Z,72.14
2023-03-18T08:15:35.533Z,73.03
2023-03-18T08:16:35.310Z,71.64
2023-03-18T08:17:35.297Z,71.89
2023-03-18T08:18:35.287Z,69.15
2023-03-18T08:19:35.238Z,71.82
2023-03-18T08:20:35.236Z,73.87
2023-03-18T08:21:35.235Z,72.73
2023-03-18T08:22:35.225Z,73.48
2023-03-18T08:23:35.206Z,72.48
2023-03-18T08:24:35.915Z,71.79
2023-03-18T08:25:35.621Z,70.94
2023-03-18T08:26:35.159Z,74.54
2023-03-18T08:27:35.159Z,71.97
2023-03-18T08:28:35.164Z,71.77
2023-03-18T08:29:35.123Z,72.91
2023-03-18T08:30:35.863Z,72.96
2023-03-18T08:31:35.152Z,73.19
2023-03-18T08:32:35.174Z,71.79
2023-03-18T08:33:35.085Z,72.90
2023-03-18T08:34:35.125Z,74.29
2023-03-18T08:35:35.060Z,73.13
2023-03-18T08:36:35.176Z,73.33
2023-03-18T08:37:35.011Z,71.73
2023-03-18T08:38:35.071Z,71.33
2023-03-18T08:39:35.086Z,73.07
2023-03-18T08:40:34.969Z,74.85
2023-03-18T08:41:35.031Z,73.53
2023-03-18T08:42:34.958Z,74.85
2023-03-18T08:43:36.775Z,74.21
2023-03-18T08:44:34.971Z,73.55
2023-03-18T08:45:35.456Z,73.59
2023-03-18T08:46:34.972Z,74.14
2023-03-18T08:47:34.929Z,75.69
2023-03-18T08:48:34.933Z,70.63
2023-03-18T08:49:34.924Z,72.93
2023-03-18T08:50:34.862Z,73.98
2023-03-18T08:51:34.880Z,73.62
2023-03-18T08:52:34.950Z,75.43
2023-03-18T08:53:34.858Z,74.26
2023-03-18T08:54:35.104Z,73.44
2023-03-18T08:55:35.140Z,72.86
2023-03-18T08:56:34.838Z,74.09
2023-03-18T08:57:34.821Z,72.98
2023-03-18T08:58:34.799Z,72.59
2023-03-18T08:59:35.832Z,72.80
2023-03-18T09:00:35.762Z,72.39
2023-03-18T09:01:35.845Z,72.02
2023-03-18T09:02:34.753Z,72.71
2023-03-18T09:03:34.826Z,72.79
2023-03-18T09:04:34.776Z,72.62
2023-03-18T09:05:35.834Z,70.78
2023-03-18T09:06:34.753Z,72.03
2023-03-18T09:07:38.391Z,73.16
2023-03-18T09:08:35.509Z,75.03
2023-03-18T09:09:43.667Z,72.97
2023-03-18T09:10:36.733Z,72.96
2023-03-18T09:11:34.658Z,74.57
2023-03-18T09:12:34.673Z,72.85
2023-03-18T09:13:34.796Z,72.50
2023-03-18T09:14:34.693Z,72.97
2023-03-18T09:15:35.088Z,73.57
2023-03-18T09:16:34.640Z,74.04
2023-03-18T09:17:49.059Z,72.35
2023-03-18T09:18:36.631Z,74.30
2023-03-18T09:19:34.551Z,71.65
2023-03-18T09:20:34.568Z,73.04
2023-03-18T09:21:34.544Z,73.52
2023-03-18T09:22:34.544Z,72.20
2023-03-18T09:23:34.518Z,73.59
2023-03-18T09:24:34.516Z,73.65
2023-03-18T09:25:34.968Z,72.85
2023-03-18T09:26:34.519Z,75.20
2023-03-18T09:27:35.308Z,74.15
2023-03-18T09:28:34.603Z,74.29
2023-03-18T09:29:34.419Z,74.23
2023-03-18T09:30:34.499Z,72.44
2023-03-18T09:31:34.634Z,71.74
2023-03-18T09:32:35.075Z,73.55
2023-03-18T09:33:34.411Z,71.46
2023-03-18T09:34:34.410Z,73.50
2023-03-18T09:35:34.970Z,73.61
2023-03-18T09:36:34.390Z,73.96
2023-03-18T09:37:34.478Z,74.29
2023-03-18T09:38:34.412Z,73.67
2023-03-18T09:39:34.329Z,73.98
2023-03-18T09:40:36.823Z,73.96
2023-03-18T09:41:34.304Z,72.45
2023-03-18T09:42:34.342Z,72.79
2023-03-18T09:43:34.362Z,73.76
2023-03-18T09:44:34.278Z,72.40
2023-03-18T09:45:35.298Z,73.35
2023-03-18T09:46:34.452Z,73.56
2023-03-18T09:47:34.273Z,73.95
2023-03-18T09:48:35.523Z,73.37
2023-03-18T09:49:34.262Z,73.36
2023-03-18T09:50:34.238Z,71.66
2023-03-18T09:51:34.242Z,73.18
2023-03-18T09:52:35.358Z,71.44
2023-03-18T09:53:34.194Z,72.89
2023-03-18T09:54:34.219Z,72.43
2023-03-18T09:55:34.414Z,73.72
2023-03-18T09:56:34.322Z,72.22
2023-03-18T09:57:34.231Z,70.85
2023-03-18T09:58:34.195Z,72.39
2023-03-18T09:59:34.182Z,72.15
2023-03-18T10:00:34.291Z,73.23
2023-03-18T10:01:34.217Z,72.03
2023-03-18T10:02:34.142Z,74.84
2023-03-18T10:03:34.098Z,73.50
2023-03-18T10:04:34.086Z,74.38
2023-03-18T10:05:34.543Z,74.30
2023-03-18T10:06:34.092Z,73.47
2023-03-18T10:07:34.044Z,72.86
2023-03-18T10:08:36.227Z,71.84
2023-03-18T10:09:35.018Z,72.53
2023-03-18T10:10:33.995Z,72.02
2023-03-18T10:11:34.018Z,72.05
2023-03-18T10:12:34.059Z,73.11
2023-03-18T10:13:34.073Z,73.04
2023-03-18T10:14:36.175Z,73.76
2023-03-18T10:15:34.292Z,74.07
2023-03-18T10:16:33.928Z,72.54
2023-03-18T10:17:33.982Z,71.72
2023-03-18T10:18:34.013Z,72.78
2023-03-18T10:19:34.033Z,72.31
2023-03-18T10:20:34.892Z,73.40
2023-03-18T10:21:33.855Z,72.45
2023-03-18T10:22:33.915Z,73.99
2023-03-18T10:23:35.164Z,74.45
2023-03-18T10:24:33.881Z,71.26
2023-03-18T10:25:34.945Z,71.94
2023-03-18T10:26:33.890Z,71.10
2023-03-18T10:27:33.910Z,72.77
2023-03-18T10:28:33.817Z,71.90
2023-03-18T10:29:33.818Z,72.95
2023-03-18T10:30:33.878Z,71.91
2023-03-18T10:31:33.862Z,71.65
2023-03-18T10:32:48.681Z,72.55
2023-03-18T10:33:35.809Z,71.86
2023-03-18T10:34:33.695Z,72.82
2023-03-18T10:35:34.177Z,72.77
2023-03-18T10:36:33.731Z,72.67
2023-03-18T10:37:33.843Z,71.80
2023-03-18T10:38:34.003Z,72.58
2023-03-18T10:39:33.828Z,72.68
2023-03-18T10:40:33.697Z,72.45
2023-03-18T10:41:33.728Z,72.40
2023-03-18T10:42:33.849Z,71.18
2023-03-18T10:43:34.666Z,72.74
2023-03-18T10:44:33.788Z,72.27
2023-03-18T10:45:35.025Z,73.37
2023-03-18T10:46:34.575Z,73.71
2023-03-18T10:47:33.664Z,72.54
2023-03-18T10:48:33.581Z,71.98
2023-03-18T10:50:07.460Z,71.33
2023-03-18T10:51:05.966Z,71.58
2023-03-18T10:52:07.101Z,71.88
2023-03-18T10:52:33.564Z,73.94
2023-03-18T10:53:33.501Z,73.49
2023-03-18T10:54:34.405Z,72.69
2023-03-18T10:56:05.945Z,71.10
2023-03-18T10:57:05.918Z,72.25
2023-03-18T10:58:05.895Z,71.61
2023-03-18T10:58:33.527Z,72.07
2023-03-18T11:00:07.279Z,72.95
2023-03-18T11:01:05.892Z,72.57
2023-03-18T11:01:33.502Z,73.46
2023-03-18T11:03:18.975Z,74.80
2023-03-18T11:03:33.711Z,73.53
2023-03-18T11:04:33.424Z,72.18
2023-03-18T11:06:07.419Z,73.01
2023-03-18T11:07:06.809Z,72.62
2023-03-18T11:08:07.315Z,73.17
2023-03-18T11:09:07.362Z,73.36
2023-03-18T11:09:33.372Z,71.54
2023-03-18T11:11:05.803Z,73.85
2023-03-18T11:11:33.769Z,72.68
2023-03-18T11:13:07.183Z,72.66
2023-03-18T11:13:33.328Z,75.38
2023-03-18T11:14:33.303Z,73.01
2023-03-18T11:15:33.311Z,71.67
2023-03-18T11:16:34.316Z,72.61
2023-03-18T11:17:33.290Z,73.17
2023-03-18T11:18:33.234Z,73.17
2023-03-18T11:19:33.283Z,74.82
2023-03-18T11:20:33.394Z,72.41
2023-03-18T11:21:33.236Z,73.49
2023-03-18T11:22:33.240Z,73.87
2023-03-18T11:23:33.229Z,75.26
2023-03-18T11:24:34.549Z,73.05
2023-03-18T11:25:33.182Z,75.77
2023-03-18T11:26:33.222Z,75.72
2023-03-18T11:27:33.172Z,75.36
2023-03-18T11:28:33.152Z,73.00
2023-03-18T11:29:33.162Z,73.85
2023-03-18T11:30:34.830Z,72.38
2023-03-18T11:31:34.172Z,73.86
2023-03-18T11:32:33.117Z,74.71
2023-03-18T11:33:33.118Z,73.62
2023-03-18T11:34:33.100Z,73.89
2023-03-18T11:35:33.106Z,73.07
2023-03-18T11:36:33.046Z,71.39
2023-03-18T11:37:33.792Z,75.61
2023-03-18T11:38:33.032Z,75.15
2023-03-18T11:39:33.036Z,75.53
2023-03-18T11:40:33.189Z,73.53
2023-03-18T11:41:33.010Z,75.61
2023-03-18T11:42:32.957Z,74.92
2023-03-18T11:43:32.979Z,74.03
2023-03-18T11:44:32.963Z,73.88
2023-03-18T11:45:32.989Z,73.99
2023-03-18T11:46:32.953Z,71.22
2023-03-18T11:47:33.001Z,75.07
2023-03-18T11:48:32.931Z,73.76
2023-03-18T11:49:32.900Z,74.54
2023-03-18T11:50:33.148Z,72.61
2023-03-18T11:51:33.005Z,73.28
2023-03-18T11:52:32.872Z,72.99
2023-03-18T11:53:32.865Z,73.12
2023-03-18T11:54:32.920Z,72.67
2023-03-18T11:55:33.293Z,71.64
2023-03-18T11:56:32.885Z,72.35
2023-03-18T11:57:32.910Z,72.87
2023-03-18T11:58:33.006Z,72.87
2023-03-18T11:59:32.788Z,73.41
2023-03-18T12:00:32.787Z,74.13
2023-03-18T12:01:32.989Z,73.51
2023-03-18T12:02:33.809Z,74.69
2023-03-18T12:03:32.733Z,73.66
2023-03-18T12:04:32.795Z,72.59
2023-03-18T12:05:33.019Z,71.68
2023-03-18T12:06:32.904Z,72.67
2023-03-18T12:07:32.720Z,73.00
2023-03-18T12:08:32.747Z,73.19
2023-03-18T12:09:32.689Z,74.91
2023-03-18T12:10:32.928Z,74.33
2023-03-18T12:11:32.724Z,74.60
2023-03-18T12:12:32.673Z,72.25
2023-03-18T12:13:33.774Z,74.00
2023-03-18T12:14:32.631Z,73.67
2023-03-18T12:15:32.768Z,74.13
2023-03-18T12:16:32.725Z,73.09
2023-03-18T12:17:32.620Z,73.39
2023-03-18T12:18:32.573Z,73.14
2023-03-18T12:19:32.640Z,72.27
2023-03-18T12:20:32.852Z,72.02
2023-03-18T12:21:32.548Z,72.78
2023-03-18T12:22:32.850Z,70.74
2023-03-18T12:23:32.558Z,71.84
2023-03-18T12:24:32.569Z,71.55
2023-03-18T12:25:32.528Z,70.85
2023-03-18T12:26:32.562Z,73.15
2023-03-18T12:27:32.482Z,71.54
2023-03-18T12:28:32.509Z,72.97
2023-03-18T12:29:32.553Z,74.77
2023-03-18T12:30:33.540Z,71.83
2023-03-18T12:31:32.502Z,72.96
2023-03-18T12:32:32.469Z,73.02
2023-03-18T12:33:32.431Z,74.19
2023-03-18T12:34:32.423Z,72.40
2023-03-18T12:35:33.465Z,72.51
2023-03-18T12:36:33.311Z,71.08
2023-03-18T12:37:32.466Z,70.27
2023-03-18T12:38:32.397Z,72.29
2023-03-18T12:39:32.376Z,72.07
2023-03-18T12:40:33.666Z,73.01
2023-03-18T12:41:32.374Z,73.13
2023-03-18T12:42:32.353Z,71.68
2023-03-18T12:43:32.337Z,71.44
2023-03-18T12:44:32.333Z,72.39
2023-03-18T12:45:32.585Z,71.40
2023-03-18T12:46:32.316Z,72.81
2023-03-18T12:47:32.293Z,74.90
2023-03-18T12:48:43.161Z,72.89
2023-03-18T12:49:34.303Z,72.00
2023-03-18T12:50:32.255Z,72.96
2023-03-18T12:51:32.242Z,73.34
2023-03-18T12:52:32.225Z,74.79
2023-03-18T12:53:32.229Z,71.82
2023-03-18T12:54:32.201Z,73.24